createdAt,value
2022-08-04T00:01:53.962Z,20.8
2022-08-04T00:06:05.087Z,20.8
2022-08-04T00:08:09.247Z,20.7
2022-08-04T00:10:13.382Z,20.7
2022-08-04T00:12:17.487Z,20.7
2022-08-04T00:14:23.196Z,20.7
2022-08-04T00:16:32.721Z,20.6
2022-08-04T00:18:34.440Z,20.6
2022-08-04T00:20:38.578Z,20.6
2022-08-04T00:22:42.694Z,20.6
2022-08-04T00:24:46.815Z,20.6
2022-08-04T00:26:50.955Z,20.5
2022-08-04T00:28:55.102Z,20.5
2022-08-04T00:30:59.206Z,20.5
2022-08-04T00:33:06.363Z,20.4
2022-08-04T00:35:10.489Z,20.4
2022-08-04T00:37:14.632Z,20.4
2022-08-04T00:38:18.199Z,20.4
2022-08-04T00:50:46.029Z,20.3
2022-08-04T00:54:54.287Z,20.2
2022-08-04T00:56:58.411Z,20.2
2022-08-04T01:05:17.952Z,20.1
2022-08-04T01:09:26.236Z,20.1
2022-08-04T01:13:34.499Z,19.9
2022-08-04T01:17:45.792Z,19.9
2022-08-04T01:21:54.080Z,19.8
2022-08-04T01:23:58.164Z,19.8
2022-08-04T01:26:02.306Z,19.8
2022-08-04T01:28:06.465Z,19.8
2022-08-04T01:32:17.715Z,19.8
2022-08-04T01:34:21.874Z,19.7
2022-08-04T01:36:50.251Z,19.6
2022-08-04T01:38:50.585Z,19.6
2022-08-04T01:40:54.617Z,19.6
2022-08-04T01:43:01.765Z,19.5
2022-08-04T01:45:05.907Z,19.5
2022-08-04T01:47:10.045Z,19.5
2022-08-04T01:49:14.174Z,19.5
2022-08-04T01:51:18.278Z,19.4
2022-08-04T01:53:22.415Z,19.4
2022-08-04T01:55:54.469Z,19.5
2022-08-04T01:59:37.859Z,19.4
2022-08-04T02:06:03.430Z,19.3
2022-08-04T02:07:54.336Z,19.3
2022-08-04T02:09:58.455Z,19.3
2022-08-04T02:12:06.230Z,19.2
2022-08-04T02:14:10.381Z,19.2
2022-08-04T02:16:14.492Z,19.2
2022-08-04T02:18:18.619Z,19.2
2022-08-04T02:20:22.753Z,19.1
2022-08-04T02:24:31.053Z,19.1
2022-08-04T02:26:38.167Z,19.1
2022-08-04T02:28:42.309Z,19.1
2022-08-04T02:30:46.409Z,19
2022-08-04T02:31:49.992Z,19
2022-08-04T02:33:54.130Z,19
2022-08-04T02:35:58.265Z,19
2022-08-04T02:38:02.403Z,19
2022-08-04T02:40:09.534Z,19
2022-08-04T02:42:13.672Z,19
2022-08-04T02:44:17.808Z,19
2022-08-04T02:46:21.946Z,19
2022-08-04T02:48:30.698Z,18.9
2022-08-04T02:50:30.193Z,19
2022-08-04T02:52:34.331Z,19
2022-08-04T02:54:41.455Z,18.8
2022-08-04T02:56:45.591Z,18.8
2022-08-04T02:58:49.737Z,18.8
2022-08-04T03:00:53.883Z,18.8
2022-08-04T03:02:57.991Z,18.8
2022-08-04T03:07:06.738Z,18.8
2022-08-04T03:09:13.446Z,18.8
2022-08-04T03:11:17.517Z,18.8
2022-08-04T03:13:21.669Z,18.7
2022-08-04T03:21:38.163Z,18.7
2022-08-04T03:28:57.167Z,18.6
2022-08-04T03:31:01.297Z,18.6
2022-08-04T03:33:05.426Z,18.6
2022-08-04T03:35:09.553Z,18.6
2022-08-04T03:37:16.704Z,18.6
2022-08-04T03:39:20.886Z,18.6
2022-08-04T03:41:50.957Z,18.6
2022-08-04T03:43:57.515Z,18.6
2022-08-04T03:45:33.224Z,18.6
2022-08-04T03:47:44.284Z,18.6
2022-08-04T03:49:41.479Z,18.6
2022-08-04T03:51:48.648Z,18.6
2022-08-04T03:53:52.789Z,18.6
2022-08-04T03:55:56.915Z,18.5
2022-08-04T03:58:01.067Z,18.6
2022-08-04T04:00:05.171Z,18.5
2022-08-04T04:02:09.366Z,18.5
2022-08-04T04:04:13.410Z,18.6
2022-08-04T04:06:20.594Z,18.4
2022-08-04T04:08:24.699Z,18.4
2022-08-04T04:10:29.132Z,18.4
2022-08-04T04:12:32.950Z,18.4
2022-08-04T04:14:37.074Z,18.5
2022-08-04T04:16:41.221Z,18.4
2022-08-04T04:20:52.489Z,18.4
2022-08-04T04:22:56.614Z,18.5
2022-08-04T04:28:45.081Z,18.4
2022-08-04T04:30:12.563Z,18.4
2022-08-04T04:32:16.694Z,18.4
2022-08-04T04:34:23.853Z,18.4
2022-08-04T04:36:27.974Z,18.5
2022-08-04T04:38:32.082Z,18.5
2022-08-04T04:40:36.214Z,18.5
2022-08-04T04:42:40.361Z,18.6
2022-08-04T04:44:44.469Z,18.7
2022-08-04T04:46:48.763Z,18.6
2022-08-04T04:50:59.888Z,18.7
2022-08-04T04:53:03.999Z,18.9
2022-08-04T04:55:08.133Z,19
2022-08-04T04:59:16.389Z,19.1
2022-08-04T05:01:20.536Z,19.3
2022-08-04T05:03:27.674Z,19.5
2022-08-04T05:05:31.791Z,19.6
2022-08-04T05:07:35.921Z,19.7
2022-08-04T05:09:40.058Z,20
2022-08-04T05:11:44.165Z,20.1
2022-08-04T05:14:37.970Z,20.4
2022-08-04T05:17:59.572Z,20.8
2022-08-04T05:22:10.151Z,20.9
2022-08-04T05:24:34.995Z,21.1
2022-08-04T05:26:36.197Z,21.1
2022-08-04T05:28:40.328Z,21.3
2022-08-04T05:30:47.453Z,21.4
2022-08-04T05:32:51.589Z,21.4
2022-08-04T05:34:55.703Z,21.6
2022-08-04T05:36:59.844Z,21.6
2022-08-04T05:39:04.024Z,21.8
2022-08-04T05:41:08.084Z,21.9
2022-08-04T05:43:12.232Z,21.9
2022-08-04T05:45:19.365Z,22.1
2022-08-04T05:47:23.855Z,22.2
2022-08-04T05:49:27.592Z,22.3
2022-08-04T05:51:31.717Z,22.3
2022-08-04T05:53:35.834Z,22.3
2022-08-04T05:55:58.623Z,22.5
2022-08-04T05:59:51.215Z,22.8
2022-08-04T06:01:57.087Z,23
2022-08-04T06:03:59.452Z,24
2022-08-04T06:06:03.570Z,24
2022-08-04T06:08:13.899Z,23.8
2022-08-04T06:10:11.804Z,23.7
2022-08-04T06:12:17.484Z,23.9
2022-08-04T06:14:24.607Z,23.9
2022-08-04T06:16:30.716Z,23.9
2022-08-04T06:19:58.509Z,23.9
2022-08-04T06:19:59.590Z,23.9
2022-08-04T06:25:48.740Z,24.2
2022-08-04T06:34:08.217Z,24.3
2022-08-04T06:36:12.324Z,24.6
2022-08-04T06:38:16.425Z,24.7
2022-08-04T06:42:27.670Z,25.1
2022-08-04T06:56:59.374Z,26.4
2022-08-04T07:07:20.127Z,27.9
2022-08-04T07:11:39.188Z,27.5
2022-08-04T07:15:39.198Z,27.5
2022-08-04T07:16:42.750Z,27.4
2022-08-04T07:18:46.828Z,27.4
2022-08-04T07:20:50.907Z,27.1
2022-08-04T07:25:02.096Z,26.6
2022-08-04T07:27:06.161Z,26.6
2022-08-04T07:29:10.255Z,26.7
2022-08-04T07:31:31.973Z,26.6
2022-08-04T07:33:18.479Z,26.8
2022-08-04T07:36:04.480Z,26.8
2022-08-04T07:37:39.058Z,26.9
2022-08-04T07:43:41.716Z,27.2
2022-08-04T07:49:57.340Z,28.1
2022-08-04T07:51:57.949Z,28.4
2022-08-04T07:54:05.034Z,29.5
2022-08-04T07:56:09.056Z,29.8
2022-08-04T08:00:17.187Z,31.1
2022-08-04T08:02:21.212Z,31.3
2022-08-04T08:04:25.242Z,32.7
2022-08-04T08:06:32.870Z,32.5
2022-08-04T08:08:36.379Z,30.3
2022-08-04T08:13:47.943Z,30.8
2022-08-04T08:15:51.971Z,31
2022-08-04T08:17:59.327Z,31.2
2022-08-04T08:22:07.071Z,31.3
2022-08-04T08:28:19.070Z,31.4
2022-08-04T08:32:27.065Z,31.1
2022-08-04T08:34:31.111Z,31.9
2022-08-04T08:36:38.103Z,31.9
2022-08-04T08:38:42.100Z,31.4
2022-08-04T08:40:46.091Z,31
2022-08-04T08:42:50.075Z,30.1
2022-08-04T08:46:58.065Z,29.7
2022-08-04T08:49:02.017Z,29.6
2022-08-04T08:51:09.049Z,29.9
2022-08-04T08:53:13.066Z,30
2022-08-04T08:55:17.046Z,29.7
2022-08-04T09:01:29.093Z,29.2
2022-08-04T09:03:32.988Z,29
2022-08-04T09:05:40.030Z,29.3
2022-08-04T09:09:48.005Z,29.5
2022-08-04T09:12:12.151Z,28.5
2022-08-04T09:14:16.162Z,28.4
2022-08-04T09:16:20.144Z,28.1
2022-08-04T09:18:27.208Z,27.9
2022-08-04T09:20:31.221Z,28
2022-08-04T09:24:39.221Z,28.3
2022-08-04T09:26:43.242Z,28.5
2022-08-04T09:28:54.490Z,28.9
2022-08-04T09:30:51.320Z,29.1
2022-08-04T09:32:58.318Z,29
2022-08-04T09:37:06.346Z,29.4
2022-08-04T09:39:10.391Z,28.8
2022-08-04T09:41:20.835Z,29
2022-08-04T09:43:19.881Z,29.1
2022-08-04T09:47:39.746Z,28.9
2022-08-04T09:51:58.619Z,29.8
2022-08-04T09:57:49.377Z,29.6
2022-08-04T09:59:53.368Z,29.7
2022-08-04T10:02:00.549Z,30
2022-08-04T10:04:04.418Z,29.8
2022-08-04T10:06:08.394Z,29.6
2022-08-04T10:07:11.925Z,29.6
2022-08-04T10:09:15.916Z,29.7
2022-08-04T10:11:19.886Z,29.8
2022-08-04T10:13:23.888Z,29.9
2022-08-04T10:19:38.870Z,29.3
2022-08-04T10:23:56.592Z,29.3
2022-08-04T10:27:54.750Z,29.4
2022-08-04T10:30:01.771Z,28.6
2022-08-04T10:32:05.751Z,28.6
2022-08-04T10:34:09.732Z,28.7
2022-08-04T10:36:13.812Z,28.5
2022-08-04T10:38:17.686Z,28.2
2022-08-04T10:46:36.672Z,27.4
2022-08-04T10:48:40.679Z,27.3
2022-08-04T10:50:44.675Z,27.2
2022-08-04T10:52:48.676Z,27.1
2022-08-04T10:54:52.688Z,27
2022-08-04T10:56:56.967Z,26.7
2022-08-04T10:59:03.765Z,26.6
2022-08-04T11:01:07.757Z,26.5
2022-08-04T11:03:11.908Z,26.6
2022-08-04T11:04:15.350Z,26.5
2022-08-04T11:06:19.388Z,26.3
2022-08-04T11:08:23.415Z,26.2
2022-08-04T11:10:27.450Z,25.9
2022-08-04T11:12:34.676Z,25.7
2022-08-04T11:14:38.922Z,25.7
2022-08-04T11:16:42.630Z,25.7
2022-08-04T11:18:46.676Z,25.7
2022-08-04T11:20:50.737Z,25.7
2022-08-04T11:22:54.875Z,25.8
2022-08-04T11:24:58.889Z,25.7
2022-08-04T11:27:05.985Z,25.8
2022-08-04T11:29:10.065Z,25.9
2022-08-04T11:31:14.104Z,26
2022-08-04T11:33:18.192Z,25.9
2022-08-04T11:35:22.249Z,25.7
2022-08-04T11:37:26.521Z,25.5
2022-08-04T11:39:30.467Z,25.4
2022-08-04T11:41:37.504Z,25.2
2022-08-04T11:44:02.734Z,25.2
2022-08-04T11:45:45.678Z,25.1
2022-08-04T11:47:49.739Z,25.1
2022-08-04T11:49:56.946Z,25.1
2022-08-04T11:51:58.003Z,25.1
2022-08-04T11:54:02.006Z,25
2022-08-04T11:56:11.149Z,25
2022-08-04T11:58:13.208Z,24.9
2022-08-04T12:00:17.310Z,24.9
2022-08-04T12:01:21.632Z,24.8
2022-08-04T12:05:37.240Z,24.7
2022-08-04T12:09:41.827Z,24.7
2022-08-04T12:11:45.978Z,24.7
2022-08-04T12:13:50.103Z,24.7
2022-08-04T12:15:54.147Z,24.9
2022-08-04T12:17:58.253Z,24.8
2022-08-04T12:22:06.456Z,25
2022-08-04T12:26:17.657Z,26.2
2022-08-04T12:28:21.755Z,26.1
2022-08-04T12:30:59.924Z,26.2
2022-08-04T12:32:29.920Z,26
2022-08-04T12:34:34.005Z,26
2022-08-04T12:36:38.105Z,25.9
2022-08-04T12:38:45.223Z,26.5
2022-08-04T12:44:57.431Z,26.6
2022-08-04T12:47:27.723Z,26.8
2022-08-04T12:51:30.920Z,26.4
2022-08-04T12:53:23.310Z,26.7
2022-08-04T12:57:24.916Z,27.3
2022-08-04T12:59:57.014Z,27.2
2022-08-04T13:03:57.179Z,26.8
2022-08-04T13:06:04.274Z,27.6
2022-08-04T13:08:08.440Z,27.8
2022-08-04T13:10:12.385Z,27.8
2022-08-04T13:12:16.440Z,27.3
2022-08-04T13:14:27.051Z,27.4
2022-08-04T13:16:24.525Z,27.5
2022-08-04T13:18:30.322Z,27.8
2022-08-04T13:20:35.684Z,27.9
2022-08-04T13:22:39.724Z,28
2022-08-04T13:24:56.328Z,27.8
2022-08-04T13:26:53.993Z,28
2022-08-04T13:28:51.839Z,28.4
2022-08-04T13:30:55.877Z,28.4
2022-08-04T13:32:59.923Z,28.6
2022-08-04T13:35:07.013Z,28.7
2022-08-04T13:41:19.127Z,28.6
2022-08-04T13:45:34.736Z,29
2022-08-04T13:47:31.195Z,28.8
2022-08-04T13:49:54.586Z,28.8
2022-08-04T13:51:58.122Z,28.6
2022-08-04T13:53:46.344Z,28.2
2022-08-04T13:54:53.473Z,28.6
2022-08-04T13:56:53.907Z,28.7
2022-08-04T13:58:57.909Z,28.7
2022-08-04T14:01:02.123Z,28.9
2022-08-04T14:03:23.470Z,28.9
2022-08-04T14:05:18.114Z,28.9
2022-08-04T14:07:20.783Z,28.7
2022-08-04T14:09:21.068Z,29
2022-08-04T14:12:10.800Z,29.1
2022-08-04T14:13:29.124Z,29.2
2022-08-04T14:16:00.999Z,29.3
2022-08-04T14:17:40.195Z,29.7
2022-08-04T14:19:44.189Z,29.8
2022-08-04T14:21:48.264Z,29.6
2022-08-04T14:25:56.216Z,29.8
2022-08-04T14:32:14.476Z,30.1
2022-08-04T14:36:19.163Z,30.4
2022-08-04T14:40:31.215Z,29.8
2022-08-04T14:42:31.053Z,29.5
2022-08-04T14:44:35.017Z,29.9
2022-08-04T14:46:41.994Z,30
2022-08-04T14:48:49.424Z,29.7
2022-08-04T14:50:49.890Z,30.1
2022-08-04T14:51:53.393Z,29.8
2022-08-04T14:53:57.349Z,29.6
2022-08-04T14:56:01.373Z,29.6
2022-08-04T14:58:33.911Z,29.2
2022-08-04T15:00:15.840Z,28.7
2022-08-04T15:02:16.283Z,28.9
2022-08-04T15:04:20.077Z,28.6
2022-08-04T15:06:24.209Z,28.3
2022-08-04T15:08:30.944Z,28.2
2022-08-04T15:10:31.997Z,28.3
2022-08-04T15:14:42.943Z,27.8
2022-08-04T15:16:53.859Z,27.7
2022-08-04T15:18:50.861Z,28
2022-08-04T15:20:54.855Z,28.1
2022-08-04T15:22:58.828Z,28.3
2022-08-04T15:25:02.881Z,28.2
2022-08-04T15:27:06.758Z,28.6
2022-08-04T15:29:16.739Z,28.8
2022-08-04T15:32:06.580Z,28.7
2022-08-04T15:33:22.252Z,28.3
2022-08-04T15:35:30.817Z,28.4
2022-08-04T15:37:29.670Z,28.9
2022-08-04T15:39:33.749Z,28.8
2022-08-04T15:41:37.641Z,28.9
2022-08-04T15:43:44.691Z,29.7
2022-08-04T15:46:41.575Z,29.6
2022-08-04T15:47:53.732Z,29.7
2022-08-04T15:48:56.125Z,30
2022-08-04T15:51:00.104Z,30.1
2022-08-04T15:53:12.461Z,30.8
2022-08-04T15:55:08.028Z,31.4
2022-08-04T15:57:15.034Z,29.7
2022-08-04T15:59:24.169Z,29.6
2022-08-04T16:01:23.006Z,28.7
2022-08-04T16:03:57.870Z,28.3
2022-08-04T16:09:45.139Z,31
2022-08-04T16:11:45.769Z,31.5
2022-08-04T16:13:49.711Z,31.4
2022-08-04T16:15:53.637Z,30.4
2022-08-04T16:17:57.603Z,29.7
2022-08-04T16:20:01.607Z,29.4
2022-08-04T16:22:05.473Z,29.2
2022-08-04T16:26:16.443Z,27.9
2022-08-04T16:28:20.384Z,28.2
2022-08-04T16:30:24.363Z,27.6
2022-08-04T16:32:28.321Z,27.6
2022-08-04T16:34:48.002Z,27.4
2022-08-04T16:36:36.267Z,27.8
2022-08-04T16:38:40.274Z,27.2
2022-08-04T16:40:47.331Z,26.7
2022-08-04T16:42:51.303Z,26.4
2022-08-04T16:51:27.516Z,26
2022-08-04T16:55:38.626Z,26.1
2022-08-04T16:57:42.658Z,26.4
2022-08-04T16:59:46.693Z,26.6
2022-08-04T17:01:50.833Z,27.2
2022-08-04T17:03:55.671Z,26.9
2022-08-04T17:05:58.813Z,26.7
2022-08-04T17:10:10.251Z,26.5
2022-08-04T17:14:18.048Z,26.2
2022-08-04T17:16:22.094Z,26
2022-08-04T17:18:26.119Z,26.5
2022-08-04T17:21:01.477Z,27.6
2022-08-04T17:22:37.281Z,28.8
2022-08-04T17:24:41.399Z,29.3
2022-08-04T17:26:54.555Z,29.8
2022-08-04T17:28:49.365Z,29.5
2022-08-04T17:30:53.394Z,29.3
2022-08-04T17:32:57.393Z,29.1
2022-08-04T17:35:01.566Z,29.1
2022-08-04T17:37:38.045Z,28.9
2022-08-04T17:39:16.342Z,29.1
2022-08-04T17:41:30.221Z,29.3
2022-08-04T17:44:23.989Z,29
2022-08-04T17:46:28.509Z,29.1
2022-08-04T17:48:31.964Z,28.9
2022-08-04T17:50:43.395Z,28.1
2022-08-04T17:52:45.213Z,27.8
2022-08-04T17:54:46.952Z,27.6
2022-08-04T17:56:52.037Z,27.4
2022-08-04T17:58:54.931Z,27.2
2022-08-04T18:01:10.627Z,27.2
2022-08-04T18:09:22.821Z,26
2022-08-04T18:19:48.227Z,25.3
2022-08-04T18:21:59.315Z,24.9
2022-08-04T18:23:51.258Z,24.2
2022-08-04T18:25:54.712Z,23.8
2022-08-04T18:27:58.743Z,23.7
2022-08-04T18:30:31.079Z,23.6
2022-08-04T18:32:06.854Z,23.5
2022-08-04T18:34:19.079Z,23.3
2022-08-04T18:36:35.436Z,23.3
2022-08-04T18:40:17.300Z,23.2
2022-08-04T18:42:01.676Z,23.2
2022-08-04T18:45:38.863Z,23.1
2022-08-04T18:51:00.232Z,23
2022-08-04T18:53:58.687Z,22.9
2022-08-04T19:02:17.897Z,22.7
2022-08-04T19:08:34.414Z,22.5
2022-08-04T19:10:33.283Z,22.4
2022-08-04T19:12:37.425Z,22.4
2022-08-04T19:14:41.535Z,22.3
2022-08-04T19:16:48.665Z,22.2
2022-08-04T19:18:52.801Z,22.1
2022-08-04T19:20:56.924Z,22.1
2022-08-04T19:24:27.298Z,22.1
2022-08-04T19:25:05.160Z,22.1
2022-08-04T19:27:09.806Z,22.1
2022-08-04T19:29:13.393Z,22
2022-08-04T19:31:24.972Z,22
2022-08-04T19:35:28.827Z,21.9
2022-08-04T19:36:32.365Z,21.9
2022-08-04T19:38:36.529Z,21.8
2022-08-04T19:40:40.626Z,21.9
2022-08-04T19:42:44.753Z,21.8
2022-08-04T19:44:51.921Z,21.7
2022-08-04T19:46:56.091Z,21.7
2022-08-04T19:49:00.820Z,21.7
2022-08-04T19:51:04.331Z,21.6
2022-08-04T19:53:19.627Z,21.6
2022-08-04T19:57:16.661Z,21.6
2022-08-04T19:59:23.819Z,21.5
2022-08-04T20:01:33.546Z,21.5
2022-08-04T20:04:10.558Z,21.4
2022-08-04T20:05:55.100Z,21.4
2022-08-04T20:07:40.316Z,21.3
2022-08-04T20:09:53.347Z,21.4
2022-08-04T20:11:48.563Z,21.4
2022-08-04T20:13:55.701Z,21.3
2022-08-04T20:15:59.840Z,21.3
2022-08-04T20:20:08.504Z,21.2
2022-08-04T20:22:52.054Z,21.2
2022-08-04T20:24:36.503Z,21.2
2022-08-04T20:26:20.473Z,21.2
2022-08-04T20:28:36.438Z,21.2
2022-08-04T20:30:31.738Z,21.2
2022-08-04T20:32:35.872Z,21.2
2022-08-04T20:35:00.500Z,21.1
2022-08-04T20:37:04.619Z,21.1
2022-08-04T20:39:09.805Z,21.1
2022-08-04T20:41:15.890Z,21.1
2022-08-04T20:43:20.037Z,21.1
2022-08-04T20:45:24.302Z,21.2
2022-08-04T20:47:31.110Z,21.1
2022-08-04T20:49:35.036Z,21.1
2022-08-04T20:51:40.162Z,21.1
2022-08-04T20:53:53.108Z,21
2022-08-04T20:55:55.096Z,21
2022-08-04T20:57:54.847Z,21
2022-08-04T20:59:59.667Z,21
2022-08-04T21:02:00.280Z,20.9
2022-08-04T21:04:04.277Z,20.9
2022-08-04T21:06:08.417Z,20.8
2022-08-04T21:10:21.946Z,20.9
2022-08-04T21:12:27.276Z,20.9
2022-08-04T21:14:28.990Z,20.8
2022-08-04T21:16:55.002Z,20.8
2022-08-04T21:18:36.197Z,20.8
2022-08-04T21:20:43.121Z,20.7
2022-08-04T21:24:51.603Z,20.7
2022-08-04T21:26:56.569Z,20.6
2022-08-04T21:28:59.863Z,20.7
2022-08-04T21:30:03.418Z,20.6
2022-08-04T21:32:08.019Z,20.6
2022-08-04T21:34:11.698Z,20.6
2022-08-04T21:36:19.571Z,20.6
2022-08-04T21:38:25.127Z,20.7
2022-08-04T21:42:31.183Z,20.6
2022-08-04T21:44:35.329Z,20.6
2022-08-04T21:46:44.361Z,20.5
2022-08-04T21:48:43.595Z,20.4
2022-08-04T21:50:50.574Z,20.2
2022-08-04T21:54:59.006Z,19.8
2022-08-04T21:57:03.591Z,19.7
2022-08-04T21:59:11.555Z,19.6
2022-08-04T22:05:19.659Z,19.4
2022-08-04T22:13:52.736Z,19.2
2022-08-04T22:17:47.638Z,19.1
2022-08-04T22:21:58.757Z,19.2
2022-08-04T22:24:02.891Z,19.1
2022-08-04T22:26:07.002Z,19.1
2022-08-04T22:27:10.578Z,19
2022-08-04T22:29:16.047Z,19
2022-08-04T22:31:23.790Z,19
2022-08-04T22:33:23.165Z,18.9
2022-08-04T22:35:35.421Z,18.9
2022-08-04T22:37:36.136Z,18.9
2022-08-04T22:39:38.431Z,18.8
2022-08-04T22:42:03.107Z,18.7
2022-08-04T22:43:46.640Z,18.7
2022-08-04T22:45:50.765Z,18.7
2022-08-04T22:50:26.613Z,18.4
2022-08-04T22:52:09.672Z,18.3
2022-08-04T22:54:12.610Z,18.2
2022-08-04T22:56:14.417Z,18.3
2022-08-04T22:58:18.719Z,18.3
2022-08-04T23:00:32.440Z,18.2
2022-08-04T23:02:26.809Z,18.2
2022-08-04T23:04:33.946Z,18.1
2022-08-04T23:06:38.080Z,18.2
2022-08-04T23:08:42.887Z,18.2
2022-08-04T23:12:50.457Z,18.2
2022-08-04T23:14:54.777Z,18.3
2022-08-04T23:16:58.765Z,18.3
2022-08-04T23:19:10.049Z,18.2
2022-08-04T23:21:10.225Z,18.1
2022-08-04T23:23:14.974Z,18.1
2022-08-04T23:24:17.658Z,18.1
2022-08-04T23:26:21.790Z,18.1
2022-08-04T23:28:25.912Z,18.1
2022-08-04T23:30:30.544Z,18.1
2022-08-04T23:32:37.190Z,18.3
2022-08-04T23:34:41.638Z,18.2
2022-08-04T23:36:45.450Z,18.2
2022-08-04T23:38:49.629Z,18.2
2022-08-04T23:40:53.750Z,18.2
2022-08-04T23:42:57.814Z,18.1
2022-08-04T23:45:01.946Z,18.2
2022-08-04T23:51:17.359Z,18.3
2022-08-04T23:53:22.652Z,18.2
2022-08-04T23:58:02.317Z,18.2
2022-08-04T23:59:52.724Z,18.2
